createdAt,value
2022-12-17T00:01:40.846Z,1077
2022-12-17T00:03:24.545Z,1079.9
2022-12-17T00:05:08.402Z,1081.5
2022-12-17T00:06:51.928Z,1082
2022-12-17T00:08:35.745Z,1080.3
2022-12-17T00:10:19.411Z,1085
2022-12-17T00:12:03.259Z,1085.1
2022-12-17T00:13:46.992Z,1083
2022-12-17T00:15:30.501Z,1084.8
2022-12-17T00:17:14.315Z,1088.8
2022-12-17T00:18:57.848Z,1090.8
2022-12-17T00:20:41.593Z,1093.4
2022-12-17T00:22:25.259Z,1094.2
2022-12-17T00:24:08.951Z,1093.7
2022-12-17T00:25:52.667Z,1094.5
2022-12-17T00:27:36.361Z,1094.1
2022-12-17T00:29:20.070Z,1090.1
2022-12-17T00:31:03.774Z,1088.9
2022-12-17T00:32:47.461Z,1092.6
2022-12-17T00:34:31.168Z,1096.1
2022-12-17T00:36:14.866Z,1099.9
2022-12-17T00:37:58.574Z,1106.3
2022-12-17T00:39:42.350Z,1109.5
2022-12-17T00:41:25.980Z,1112.1
2022-12-17T00:43:09.777Z,1116.3
2022-12-17T00:44:53.536Z,1114.9
2022-12-17T00:46:37.088Z,1116.4
2022-12-17T00:48:20.794Z,1114.6
2022-12-17T00:50:04.544Z,1113.6
2022-12-17T00:51:48.227Z,1113
2022-12-17T00:53:31.911Z,1117.5
2022-12-17T00:55:15.694Z,1117.9
2022-12-17T00:56:59.383Z,1118.1
2022-12-17T00:58:43.077Z,1114.1
2022-12-17T01:00:26.727Z,1109.9
2022-12-17T01:02:10.434Z,1110
2022-12-17T01:03:54.165Z,1113
2022-12-17T01:05:37.880Z,1112.3
2022-12-17T01:07:21.516Z,1111.4
2022-12-17T01:09:05.211Z,1114.7
2022-12-17T01:10:49.058Z,1117.8
2022-12-17T01:12:32.622Z,1122.7
2022-12-17T01:14:16.487Z,1123.9
2022-12-17T01:16:00.025Z,1125.1
2022-12-17T01:17:43.867Z,1129.4
2022-12-17T01:19:27.483Z,1126.8
2022-12-17T01:21:11.237Z,1128.3
2022-12-17T01:22:55.029Z,1130.8
2022-12-17T01:24:38.539Z,1126.4
2022-12-17T01:26:22.412Z,1127.5
2022-12-17T01:28:06.110Z,1128.2
2022-12-17T01:29:49.801Z,1130.7
2022-12-17T01:31:33.375Z,1131.2
2022-12-17T01:33:17.058Z,1134.2
2022-12-17T01:35:00.761Z,1131.1
2022-12-17T01:36:44.470Z,1136.5
2022-12-17T01:38:28.175Z,1138.1
2022-12-17T01:40:11.866Z,1136.2
2022-12-17T01:41:55.575Z,1135.1
2022-12-17T01:43:39.267Z,1134.3
2022-12-17T01:45:22.991Z,1137.4
2022-12-17T01:47:06.687Z,1141.2
2022-12-17T01:48:50.380Z,1143.2
2022-12-17T01:50:34.081Z,1145.5
2022-12-17T01:52:17.782Z,1151.7
2022-12-17T01:54:01.488Z,1155.4
2022-12-17T01:55:45.195Z,1155.1
2022-12-17T01:57:28.890Z,1155.4
2022-12-17T01:59:12.600Z,1152.7
2022-12-17T02:00:56.302Z,1150.4
2022-12-17T02:02:39.997Z,1151.5
2022-12-17T02:04:23.702Z,1151.1
2022-12-17T02:06:07.402Z,1152.5
2022-12-17T02:07:51.114Z,1157.6
2022-12-17T02:09:34.811Z,1159.6
2022-12-17T02:11:18.559Z,1158.9
2022-12-17T02:13:02.214Z,1160.7
2022-12-17T02:14:45.920Z,1162.2
2022-12-17T02:16:29.696Z,1159.8
2022-12-17T02:18:13.328Z,1161.1
2022-12-17T02:19:57.048Z,1163.7
2022-12-17T02:21:40.730Z,1163.9
2022-12-17T02:23:24.430Z,1166
2022-12-17T02:25:08.136Z,1166.3
2022-12-17T02:26:51.843Z,1166.7
2022-12-17T02:28:35.547Z,1170.4
2022-12-17T02:30:19.243Z,1172.9
2022-12-17T02:32:02.954Z,1171.6
2022-12-17T02:33:46.645Z,1175.9
2022-12-17T02:35:30.355Z,1179.2
2022-12-17T02:37:14.055Z,1177.5
2022-12-17T02:38:57.748Z,1177.3
2022-12-17T02:40:41.477Z,1176
2022-12-17T02:42:25.165Z,1174.6
2022-12-17T02:44:08.866Z,1176.3
2022-12-17T02:45:52.571Z,1180.8
2022-12-17T02:47:36.271Z,1183.7
2022-12-17T02:49:19.975Z,1186
2022-12-17T02:51:03.673Z,1187.9
2022-12-17T02:52:47.378Z,1190.6
2022-12-17T02:54:31.079Z,1192.4
2022-12-17T02:56:14.773Z,1193.7
2022-12-17T02:57:58.482Z,1195
2022-12-17T02:59:42.203Z,1200.9
2022-12-17T03:01:25.895Z,1200.1
2022-12-17T03:03:09.591Z,1200
2022-12-17T03:04:53.311Z,1198.9
2022-12-17T03:06:37.007Z,1198.9
2022-12-17T03:08:20.700Z,1200.8
2022-12-17T03:10:04.404Z,1200.1
2022-12-17T03:11:48.117Z,1199.5
2022-12-17T03:13:31.823Z,1204.4
2022-12-17T03:15:15.520Z,1202.2
2022-12-17T03:16:59.215Z,1201.7
2022-12-17T03:18:42.918Z,1204.5
2022-12-17T03:20:26.630Z,1207.6
2022-12-17T03:22:10.313Z,1208.4
2022-12-17T03:23:54.024Z,1214.4
2022-12-17T03:25:37.730Z,1215.7
2022-12-17T03:27:21.434Z,1217.2
2022-12-17T03:29:05.138Z,1224.2
2022-12-17T03:30:48.837Z,1227.2
2022-12-17T03:32:32.542Z,1224.8
2022-12-17T03:34:16.245Z,1229.4
2022-12-17T03:35:59.943Z,1232.5
2022-12-17T03:37:43.643Z,1231.8
2022-12-17T03:39:27.355Z,1227.7
2022-12-17T03:41:11.050Z,1230.6
2022-12-17T03:42:54.761Z,1227.6
2022-12-17T03:44:38.459Z,1230.3
2022-12-17T03:46:22.163Z,1234.4
2022-12-17T03:48:05.862Z,1236.4
2022-12-17T03:49:49.558Z,1238.1
2022-12-17T03:51:33.257Z,1236.3
2022-12-17T03:53:16.985Z,1238.2
2022-12-17T03:55:00.668Z,1236.6
2022-12-17T03:56:44.375Z,1236.9
2022-12-17T03:58:28.081Z,1237.7
2022-12-17T04:00:11.777Z,1238.3
2022-12-17T04:01:55.484Z,1238.4
2022-12-17T04:03:39.184Z,1242.3
2022-12-17T04:05:22.891Z,1245.1
2022-12-17T04:07:06.592Z,1245.4
2022-12-17T04:08:50.288Z,1247.4
2022-12-17T04:10:33.995Z,1243.1
2022-12-17T04:12:17.703Z,1244.9
2022-12-17T04:14:01.398Z,1249.4
2022-12-17T04:15:45.120Z,1252.9
2022-12-17T04:17:28.845Z,1254.7
2022-12-17T04:19:12.515Z,1256.3
2022-12-17T04:20:56.218Z,1256.1
2022-12-17T04:22:39.919Z,1253.3
2022-12-17T04:24:23.618Z,1256
2022-12-17T04:26:07.327Z,1260.7
2022-12-17T04:27:51.020Z,1262.1
2022-12-17T04:29:34.729Z,1264.1
2022-12-17T04:31:18.431Z,1269.1
2022-12-17T04:33:02.136Z,1268.8
2022-12-17T04:34:45.836Z,1270.9
2022-12-17T04:36:29.540Z,1269.5
2022-12-17T04:38:13.240Z,1276.4
2022-12-17T04:39:56.944Z,1282
2022-12-17T04:41:40.643Z,1280.3
2022-12-17T04:43:24.342Z,1281.3
2022-12-17T04:45:08.054Z,1279
2022-12-17T04:46:51.752Z,1277.8
2022-12-17T04:48:35.460Z,1279.1
2022-12-17T04:50:19.165Z,1281
2022-12-17T04:52:02.860Z,1288.7
2022-12-17T04:53:46.571Z,1289
2022-12-17T04:55:30.272Z,1286.9
2022-12-17T04:57:13.971Z,1290.6
2022-12-17T04:58:57.698Z,1292.6
2022-12-17T05:00:41.374Z,1293.3
2022-12-17T05:02:25.084Z,1296.7
2022-12-17T05:04:08.792Z,1299.2
2022-12-17T05:05:52.486Z,1298.5
2022-12-17T05:07:36.198Z,1298.5
2022-12-17T05:09:19.889Z,1296.4
2022-12-17T05:11:03.589Z,1293.9
2022-12-17T05:12:47.295Z,1295.8
2022-12-17T05:14:31.315Z,1299.4
2022-12-17T05:16:14.730Z,1304.5
2022-12-17T05:17:58.408Z,1305.6
2022-12-17T05:19:42.102Z,1305.5
2022-12-17T05:21:25.806Z,1311.8
2022-12-17T05:23:09.512Z,1312.6
2022-12-17T05:24:53.209Z,1315.7
2022-12-17T05:26:36.916Z,1320.1
2022-12-17T05:28:20.618Z,1318.1
2022-12-17T05:30:04.321Z,1314.8
2022-12-17T05:31:48.052Z,1312.5
2022-12-17T05:33:31.713Z,1313.7
2022-12-17T05:35:15.431Z,1313.6
2022-12-17T05:36:59.135Z,1317
2022-12-17T05:38:42.824Z,1321.8
2022-12-17T05:40:26.537Z,1328
2022-12-17T05:42:10.285Z,1332.1
2022-12-17T05:43:53.938Z,1331.5
2022-12-17T05:45:37.640Z,1332.5
2022-12-17T05:47:21.346Z,1333.2
2022-12-17T05:49:05.061Z,1338.3
2022-12-17T05:50:48.754Z,1342.6
2022-12-17T05:52:32.459Z,1347.9
2022-12-17T05:54:16.168Z,1348.5
2022-12-17T05:55:59.861Z,1348.2
2022-12-17T05:57:43.555Z,1350.7
2022-12-17T05:59:27.261Z,1354.6
2022-12-17T06:01:10.967Z,1354.1
2022-12-17T06:02:54.666Z,1349.7
2022-12-17T06:04:38.372Z,1351.9
2022-12-17T06:06:22.074Z,1360.4
2022-12-17T06:08:05.778Z,1365.5
2022-12-17T06:09:49.480Z,1366.8
2022-12-17T06:11:33.179Z,1367.7
2022-12-17T06:13:16.884Z,1369.5
2022-12-17T06:15:00.591Z,1368.3
2022-12-17T06:16:44.289Z,1370.8
2022-12-17T06:18:27.991Z,1373.4
2022-12-17T06:20:11.698Z,1378.6
2022-12-17T06:21:55.400Z,1382.2
2022-12-17T06:23:39.104Z,1380.7
2022-12-17T06:25:22.799Z,1384
2022-12-17T06:27:06.507Z,1438.2
2022-12-17T06:28:50.213Z,1509.4
2022-12-17T06:30:33.908Z,1575.2
2022-12-17T06:32:17.606Z,1635
2022-12-17T06:34:01.325Z,1648.2
2022-12-17T06:35:45.010Z,1659.7
2022-12-17T06:37:28.729Z,1676.3
2022-12-17T06:39:12.428Z,1676.8
2022-12-17T06:40:56.126Z,1678
2022-12-17T06:42:39.835Z,1677.6
2022-12-17T06:44:23.528Z,1676.3
2022-12-17T06:46:07.251Z,1680.7
2022-12-17T06:47:50.948Z,1680.5
2022-12-17T06:49:34.637Z,1685.3
2022-12-17T06:51:18.338Z,1681
2022-12-17T06:53:02.049Z,1679.6
2022-12-17T06:54:45.744Z,1675.1
2022-12-17T06:56:29.454Z,1663
2022-12-17T06:58:13.157Z,1646.8
2022-12-17T06:59:56.863Z,1632.6
2022-12-17T07:01:40.558Z,1635.3
2022-12-17T07:03:24.254Z,1639.1
2022-12-17T07:05:07.968Z,1639.1
2022-12-17T07:06:51.673Z,1639.9
2022-12-17T07:08:35.380Z,1661.1
2022-12-17T07:10:19.066Z,1783.7
2022-12-17T07:12:02.781Z,1773.5
2022-12-17T07:13:46.482Z,1746.4
2022-12-17T07:15:30.198Z,1723.4
2022-12-17T07:17:13.881Z,1718.1
2022-12-17T07:18:57.577Z,1717.2
2022-12-17T07:20:41.286Z,1716.3
2022-12-17T07:22:24.982Z,1718.6
2022-12-17T07:24:08.851Z,1722.9
2022-12-17T07:25:52.396Z,1723.7
2022-12-17T07:27:36.093Z,1721.6
2022-12-17T07:29:19.795Z,1719.8
2022-12-17T07:31:03.497Z,1717.8
2022-12-17T07:32:47.205Z,1713.7
2022-12-17T07:34:30.901Z,1711.1
2022-12-17T07:36:14.604Z,1710.8
2022-12-17T07:37:58.314Z,1699.2
2022-12-17T07:39:42.012Z,1701
2022-12-17T07:41:25.709Z,1699.5
2022-12-17T07:43:09.415Z,1692.6
2022-12-17T07:44:53.124Z,1693
2022-12-17T07:46:36.818Z,1694.9
2022-12-17T07:48:20.516Z,1700.2
2022-12-17T07:50:04.227Z,1702.7
2022-12-17T07:51:47.921Z,1704.4
2022-12-17T07:53:31.630Z,1702
2022-12-17T07:55:15.336Z,1703.7
2022-12-17T07:56:59.037Z,1703.7
2022-12-17T07:58:42.740Z,1701.7
2022-12-17T08:00:26.440Z,1700.4
2022-12-17T08:02:10.151Z,1703.4
2022-12-17T08:03:53.852Z,1702.2
2022-12-17T08:05:37.552Z,1700.1
2022-12-17T08:07:21.269Z,1697.3
2022-12-17T08:09:04.956Z,1697.9
2022-12-17T08:10:48.658Z,1694.1
2022-12-17T08:12:32.360Z,1694.4
2022-12-17T08:14:16.076Z,1703.2
2022-12-17T08:15:59.763Z,1710.6
2022-12-17T08:17:43.469Z,1704.9
2022-12-17T08:19:27.172Z,1701
2022-12-17T08:21:10.871Z,1696.2
2022-12-17T08:22:54.589Z,1696
2022-12-17T08:24:38.276Z,1697
2022-12-17T08:26:21.987Z,1701.9
2022-12-17T08:28:05.680Z,1704.8
2022-12-17T08:29:49.385Z,1704.8
2022-12-17T08:31:33.091Z,1704.5
2022-12-17T08:33:16.793Z,1706.9
2022-12-17T08:35:00.520Z,1709.5
2022-12-17T08:36:44.204Z,1708.7
2022-12-17T08:38:27.907Z,1702.4
2022-12-17T08:40:11.601Z,1703.6
2022-12-17T08:41:55.307Z,1703.7
2022-12-17T08:43:39.011Z,1700.7
2022-12-17T08:45:22.717Z,1697.8
2022-12-17T08:47:06.416Z,1704.8
2022-12-17T08:48:50.120Z,1705.3
2022-12-17T08:50:33.854Z,1705.8
2022-12-17T08:52:17.519Z,1705.5
2022-12-17T08:54:01.228Z,1703.8
2022-12-17T08:55:44.932Z,1708.4
2022-12-17T08:57:28.638Z,1706.6
2022-12-17T08:59:12.336Z,1705.8
2022-12-17T09:00:56.047Z,1704.9
2022-12-17T09:02:39.735Z,1707.6
2022-12-17T09:04:23.441Z,1707.7
2022-12-17T09:06:07.134Z,1708.5
2022-12-17T09:07:50.925Z,1708.5
2022-12-17T09:09:34.549Z,1710.6
2022-12-17T09:11:18.242Z,1710
2022-12-17T09:13:01.954Z,1708.9
2022-12-17T09:14:45.659Z,1712.2
2022-12-17T09:16:29.363Z,1711.9
2022-12-17T09:18:13.066Z,1709.9
2022-12-17T09:19:56.782Z,1709.3
2022-12-17T09:21:40.469Z,1709
2022-12-17T09:23:24.169Z,1710.6
2022-12-17T09:25:07.874Z,1711.9
2022-12-17T09:26:51.579Z,1715.7
2022-12-17T09:28:35.283Z,1719.8
2022-12-17T09:30:18.983Z,1719.8
2022-12-17T09:32:02.690Z,1718.9
2022-12-17T09:33:46.384Z,1714.5
2022-12-17T09:35:30.093Z,1715.4
2022-12-17T09:37:13.793Z,1716.9
2022-12-17T09:38:57.509Z,1714.2
2022-12-17T09:40:41.204Z,1714.5
2022-12-17T09:42:24.905Z,1713.2
2022-12-17T09:44:08.605Z,1712.9
2022-12-17T09:45:52.309Z,1719.7
2022-12-17T09:47:36.014Z,1733.5
2022-12-17T09:49:19.716Z,1747.6
2022-12-17T09:51:03.433Z,1766.6
2022-12-17T09:52:47.117Z,1804.8
2022-12-17T09:54:30.823Z,1810.1
2022-12-17T09:56:14.527Z,1816.6
2022-12-17T09:57:58.226Z,1820.1
2022-12-17T09:59:41.931Z,1830
2022-12-17T10:01:25.642Z,1844.4
2022-12-17T10:03:09.351Z,1849.5
2022-12-17T10:06:36.751Z,1841.2
2022-12-17T10:08:20.448Z,1841.3
2022-12-17T10:10:04.170Z,1833.2
2022-12-17T10:11:47.863Z,1821.5
2022-12-17T10:13:31.577Z,1822.4
2022-12-17T10:15:15.267Z,1820
2022-12-17T10:16:58.966Z,1823.6
2022-12-17T10:18:42.665Z,1827.5
2022-12-17T10:20:26.363Z,1831.7
2022-12-17T10:22:10.061Z,1837.8
2022-12-17T10:23:53.766Z,1840.5
2022-12-17T10:25:37.462Z,1845.7
2022-12-17T10:27:21.189Z,1851
2022-12-17T10:29:04.874Z,1850
2022-12-17T10:30:48.590Z,1852.3
2022-12-17T10:32:32.278Z,1865.2
2022-12-17T10:34:15.980Z,1868.4
2022-12-17T10:35:59.683Z,1868.3
2022-12-17T10:37:43.388Z,1870.7
2022-12-17T10:39:27.090Z,1870.3
2022-12-17T10:41:10.786Z,1870.1
2022-12-17T10:42:55.862Z,1870.1
2022-12-17T10:44:38.188Z,1870.5
2022-12-17T10:46:21.913Z,1876.4
2022-12-17T10:48:05.601Z,1882.9
2022-12-17T10:49:49.307Z,1881.7
2022-12-17T10:51:33.009Z,1882.4
2022-12-17T10:53:16.715Z,1885.1
2022-12-17T10:55:00.415Z,1893.4
2022-12-17T10:56:44.115Z,1894.9
2022-12-17T10:58:27.811Z,1901.2
2022-12-17T11:00:11.517Z,1903.4
2022-12-17T11:01:55.219Z,1901.1
2022-12-17T11:03:38.926Z,1891.5
2022-12-17T11:05:22.632Z,1885
2022-12-17T11:07:06.326Z,1888.6
2022-12-17T11:08:50.043Z,1892.6
2022-12-17T11:10:33.743Z,1908.5
2022-12-17T11:12:17.414Z,1948.7
2022-12-17T11:14:03.280Z,1983.5
2022-12-17T11:16:08.313Z,2025.7
2022-12-17T11:18:13.364Z,2051.1
2022-12-17T11:20:18.412Z,2065.5
2022-12-17T11:22:23.458Z,2085.5
2022-12-17T11:24:29.421Z,2103
2022-12-17T11:26:35.491Z,2106.9
2022-12-17T11:28:41.556Z,2107.9
2022-12-17T11:30:47.620Z,2109.4
2022-12-17T11:32:53.686Z,2107.9
2022-12-17T11:34:59.478Z,2101
2022-12-17T11:37:04.905Z,2099.6
2022-12-17T11:39:10.986Z,2101.6
2022-12-17T11:41:17.023Z,2103
2022-12-17T11:43:23.099Z,2102.6
2022-12-17T11:45:28.440Z,2098.7
2022-12-17T11:47:33.812Z,2098.4
2022-12-17T11:49:40.369Z,2172.7
2022-12-17T11:51:47.461Z,2216.1
2022-12-17T11:53:54.532Z,2212.7
2022-12-17T11:56:01.413Z,2203.3
2022-12-17T11:58:07.476Z,2188.9
2022-12-17T12:00:13.541Z,2182.2
2022-12-17T12:02:19.603Z,2177
2022-12-17T12:04:25.674Z,2174.2
2022-12-17T12:06:31.735Z,2175.9
2022-12-17T12:10:43.869Z,2177.8
2022-12-17T12:12:49.932Z,2180
2022-12-17T12:14:55.996Z,2175.4
2022-12-17T12:17:02.063Z,2179.1
2022-12-17T12:19:08.123Z,2181.5
2022-12-17T12:21:14.186Z,2180.6
2022-12-17T12:23:20.252Z,2179.3
2022-12-17T12:25:26.312Z,2184
2022-12-17T12:27:32.385Z,2182.4
2022-12-17T12:29:38.740Z,2191.9
2022-12-17T12:31:45.829Z,2206.1
2022-12-17T12:33:52.924Z,2204.8
2022-12-17T12:35:59.997Z,2207.5
2022-12-17T12:38:07.078Z,2211.3
2022-12-17T12:40:14.154Z,2211.2
2022-12-17T12:42:21.231Z,2216.1
2022-12-17T12:44:28.312Z,2220.6
2022-12-17T12:46:35.399Z,2218.4
2022-12-17T12:48:42.481Z,2221.9
2022-12-17T12:50:49.552Z,2232.6
2022-12-17T12:52:56.638Z,2249.3
2022-12-17T12:55:03.714Z,2270.1
2022-12-17T12:57:10.797Z,2274.3
2022-12-17T12:59:17.878Z,2269.4
2022-12-17T13:01:24.555Z,2207.2
2022-12-17T13:03:30.623Z,2175.7
2022-12-17T13:05:36.687Z,2166.2
2022-12-17T13:07:42.755Z,2168.1
2022-12-17T13:09:48.811Z,2161.2
2022-12-17T13:11:54.881Z,2148.4
2022-12-17T13:14:00.945Z,2139.3
2022-12-17T13:16:07.014Z,2149.1
2022-12-17T13:18:13.080Z,2145.7
2022-12-17T13:20:19.140Z,2152.9
2022-12-17T13:22:25.209Z,2157.8
2022-12-17T13:24:31.269Z,2154.7
2022-12-17T13:26:37.338Z,2156.3
2022-12-17T13:28:43.407Z,2153.8
2022-12-17T13:30:49.490Z,2157.4
2022-12-17T13:32:55.537Z,2161.6
2022-12-17T13:35:01.595Z,2166.6
2022-12-17T13:37:07.663Z,2156
2022-12-17T13:39:13.727Z,2151.4
2022-12-17T13:41:19.809Z,2152.2
2022-12-17T13:43:25.857Z,2153.3
2022-12-17T13:45:31.922Z,2154.8
2022-12-17T13:47:37.985Z,2155.8
2022-12-17T13:49:44.057Z,2153.1
2022-12-17T13:51:50.124Z,2143.8
2022-12-17T13:53:56.229Z,2139.6
2022-12-17T13:56:02.258Z,2139.9
2022-12-17T13:58:08.312Z,2140.1
2022-12-17T14:00:14.390Z,2137
2022-12-17T14:02:20.448Z,2139.2
2022-12-17T14:04:26.513Z,2137.5
2022-12-17T14:06:32.580Z,2141.5
2022-12-17T14:08:38.651Z,2141.4
2022-12-17T14:10:44.740Z,2143.8
2022-12-17T14:12:50.767Z,2153.7
2022-12-17T14:14:56.913Z,2154.4
2022-12-17T14:17:02.897Z,2163.9
2022-12-17T14:19:09.173Z,2188
2022-12-17T14:21:16.241Z,2211.1
2022-12-17T14:23:23.330Z,2204.9
2022-12-17T14:25:30.230Z,2200.5
2022-12-17T14:27:36.279Z,2170.3
2022-12-17T14:29:42.340Z,2167.8
2022-12-17T14:31:48.410Z,2164
2022-12-17T14:33:54.527Z,2167.3
2022-12-17T14:36:00.533Z,2169.2
2022-12-17T14:38:06.615Z,2167
2022-12-17T14:40:12.664Z,2166.8
2022-12-17T14:42:18.734Z,2171.7
2022-12-17T14:44:24.796Z,2172.1
2022-12-17T14:46:30.862Z,2172.6
2022-12-17T14:48:36.936Z,2180.1
2022-12-17T14:50:42.984Z,2175.4
2022-12-17T14:52:49.060Z,2173.9
2022-12-17T14:54:55.119Z,2170
2022-12-17T14:57:01.183Z,2171.1
2022-12-17T14:59:07.247Z,2174.3
2022-12-17T15:01:13.319Z,2173.8
2022-12-17T15:03:19.378Z,2178.2
2022-12-17T15:05:25.440Z,2168.6
2022-12-17T15:07:31.510Z,2171.2
2022-12-17T15:09:37.572Z,2175.2
2022-12-17T15:11:43.644Z,2181.9
2022-12-17T15:13:49.698Z,2192.2
2022-12-17T15:15:55.766Z,2194.7
2022-12-17T15:18:02.448Z,2198.8
2022-12-17T15:20:09.516Z,2204.6
2022-12-17T15:22:16.621Z,2209.6
2022-12-17T15:24:23.687Z,2209.3
2022-12-17T15:26:30.819Z,2212.1
2022-12-17T15:28:37.761Z,2207.5
2022-12-17T15:30:44.828Z,2214.9
2022-12-17T15:32:51.907Z,2219.3
2022-12-17T15:34:59.013Z,2218.3
2022-12-17T15:37:06.075Z,2215.9
2022-12-17T15:39:13.158Z,2216.4
2022-12-17T15:41:20.245Z,2228.1
2022-12-17T15:43:27.323Z,2233
2022-12-17T15:45:34.400Z,2244.6
2022-12-17T15:47:41.474Z,2247.6
2022-12-17T15:49:48.562Z,2250.5
2022-12-17T15:51:55.649Z,2251.5
2022-12-17T15:54:02.740Z,2249
2022-12-17T15:56:09.812Z,2243.9
2022-12-17T15:57:55.650Z,1079.4
2022-12-17T15:59:39.354Z,642.6
2022-12-17T16:01:23.081Z,615.5
2022-12-17T16:03:06.764Z,660.8
2022-12-17T16:04:50.456Z,1116.4
2022-12-17T16:06:34.161Z,1209.8
2022-12-17T16:08:17.875Z,1114.6
2022-12-17T16:10:01.557Z,1130.7
2022-12-17T16:11:45.274Z,1141.2
2022-12-17T16:13:28.987Z,1124
2022-12-17T16:15:12.708Z,1118.2
2022-12-17T16:16:56.398Z,1122.1
2022-12-17T16:18:40.162Z,1127.7
2022-12-17T16:20:23.782Z,1130.6
2022-12-17T16:22:07.496Z,1145.4
2022-12-17T16:23:51.193Z,1142.7
2022-12-17T16:25:34.893Z,1156.8
2022-12-17T16:27:18.594Z,1181.8
2022-12-17T16:29:02.309Z,1181.6
2022-12-17T16:30:46.004Z,1172.5
2022-12-17T16:32:29.701Z,1162.3
2022-12-17T16:34:13.420Z,1159.1
2022-12-17T16:35:57.124Z,1163.2
2022-12-17T16:37:40.799Z,1172.9
2022-12-17T16:39:24.515Z,1250.1
2022-12-17T16:41:08.216Z,1338.3
2022-12-17T16:42:51.913Z,1431.8
2022-12-17T16:44:35.630Z,1458.6
2022-12-17T16:46:19.332Z,1488.2
2022-12-17T16:48:03.021Z,1553.9
2022-12-17T16:49:46.725Z,1597.3
2022-12-17T16:51:30.431Z,1620.6
2022-12-17T16:53:14.133Z,1649.1
2022-12-17T16:54:57.837Z,1663.8
2022-12-17T16:56:41.531Z,1679.8
2022-12-17T16:58:25.304Z,1700.1
2022-12-17T17:00:08.940Z,1708.7
2022-12-17T17:01:52.640Z,1723.5
2022-12-17T17:03:36.343Z,1728.4
2022-12-17T17:05:20.050Z,1730
2022-12-17T17:07:03.754Z,1727.9
2022-12-17T17:08:47.543Z,1724.2
2022-12-17T17:10:31.150Z,1723.7
2022-12-17T17:12:14.905Z,1721.8
2022-12-17T17:13:58.565Z,1721.4
2022-12-17T17:15:42.260Z,1722.7
2022-12-17T17:17:25.967Z,1723.8
2022-12-17T17:19:09.727Z,1722.4
2022-12-17T17:20:53.365Z,1722.5
2022-12-17T17:22:37.073Z,1719.6
2022-12-17T17:24:20.779Z,1724.7
2022-12-17T17:26:04.474Z,1715.6
2022-12-17T17:27:48.184Z,1710.5
2022-12-17T17:29:31.904Z,1713.4
2022-12-17T17:31:15.603Z,1712
2022-12-17T17:32:59.297Z,1707.9
2022-12-17T17:34:43.036Z,1707.8
2022-12-17T17:36:26.741Z,1708.3
2022-12-17T17:38:10.398Z,1701.5
2022-12-17T17:39:54.096Z,1699.5
2022-12-17T17:41:37.829Z,1702.6
2022-12-17T17:43:21.508Z,1700
2022-12-17T17:45:05.210Z,1698.9
2022-12-17T17:46:48.916Z,1696.5
2022-12-17T17:48:32.603Z,1691.4
2022-12-17T17:50:16.325Z,1692
2022-12-17T17:52:00.021Z,1692.3
2022-12-17T17:53:43.724Z,1693.5
2022-12-17T17:55:27.421Z,1686.5
2022-12-17T17:57:11.125Z,1684.6
2022-12-17T17:58:54.827Z,1688.9
2022-12-17T18:00:38.547Z,1690.4
2022-12-17T18:02:22.230Z,1687.8
2022-12-17T18:04:05.939Z,1686.1
2022-12-17T18:05:49.644Z,1687.8
2022-12-17T18:07:33.329Z,1688.5
2022-12-17T18:09:17.044Z,1689.4
2022-12-17T18:11:00.753Z,1689.9
2022-12-17T18:12:44.440Z,1686.1
2022-12-17T18:14:28.143Z,1685.7
2022-12-17T18:16:11.855Z,1692.9
2022-12-17T18:17:55.563Z,1691.4
2022-12-17T18:19:39.266Z,1692.4
2022-12-17T18:21:23.052Z,1694.6
2022-12-17T18:23:06.659Z,1691.3
2022-12-17T18:24:50.365Z,1692
2022-12-17T18:26:34.166Z,1692.9
2022-12-17T18:28:17.770Z,1694.6
2022-12-17T18:30:01.474Z,1700.4
2022-12-17T18:31:45.171Z,1705.2
2022-12-17T18:33:28.873Z,1708.5
2022-12-17T18:35:12.603Z,1708.9
2022-12-17T18:36:56.279Z,1712.8
2022-12-17T18:38:39.989Z,1715.1
2022-12-17T18:40:23.688Z,1711.3
2022-12-17T18:42:07.382Z,1706.4
2022-12-17T18:43:51.093Z,1709.4
2022-12-17T18:45:34.812Z,1712
2022-12-17T18:47:18.495Z,1715.5
2022-12-17T18:49:02.201Z,1716
2022-12-17T18:50:45.911Z,1714.9
2022-12-17T18:52:29.625Z,1714.5
2022-12-17T18:54:13.313Z,1714
2022-12-17T18:55:57.130Z,1720.7
2022-12-17T18:57:40.726Z,1727.5
2022-12-17T18:59:24.418Z,1730.6
2022-12-17T19:01:08.116Z,1737.9
2022-12-17T19:02:51.843Z,1746.5
2022-12-17T19:04:35.523Z,1747.3
2022-12-17T19:06:19.227Z,1749.1
2022-12-17T19:08:02.959Z,1755
2022-12-17T19:09:46.644Z,1762.2
2022-12-17T19:11:30.359Z,1766.9
2022-12-17T19:13:14.049Z,1770.6
2022-12-17T19:14:57.748Z,1775.2
2022-12-17T19:16:41.473Z,1777.4
2022-12-17T19:18:25.165Z,1777.4
2022-12-17T19:20:08.943Z,1780.9
2022-12-17T19:21:52.587Z,1783.6
2022-12-17T19:23:36.274Z,1784.5
2022-12-17T19:25:19.977Z,1779
2022-12-17T19:27:03.668Z,1782.1
2022-12-17T19:28:47.375Z,1777.2
2022-12-17T19:30:31.079Z,1779.1
2022-12-17T19:32:14.774Z,1779
2022-12-17T19:33:58.477Z,1780.6
2022-12-17T19:35:42.181Z,1782.6
2022-12-17T19:37:25.882Z,1779.8
2022-12-17T19:39:09.587Z,1778.6
2022-12-17T19:40:53.289Z,1779.8
2022-12-17T19:42:37.069Z,1781.7
2022-12-17T19:44:20.732Z,1778.7
2022-12-17T19:46:04.406Z,1775.1
2022-12-17T19:47:48.149Z,1779.3
2022-12-17T19:49:31.808Z,1792.6
2022-12-17T19:51:15.511Z,1829.5
2022-12-17T19:52:59.206Z,1882.2
2022-12-17T19:54:42.911Z,1890.1
2022-12-17T19:56:26.295Z,1896
2022-12-17T19:58:10.014Z,1892.2
2022-12-17T19:59:53.848Z,1888.5
2022-12-17T20:01:37.492Z,1888.3
2022-12-17T20:03:21.117Z,1886.3
2022-12-17T20:05:04.847Z,1882.6
2022-12-17T20:06:48.521Z,1876.5
2022-12-17T20:08:32.227Z,1873.3
2022-12-17T20:10:15.926Z,1867.7
2022-12-17T20:11:59.622Z,1861.5
2022-12-17T20:13:43.330Z,1854.8
2022-12-17T20:15:27.043Z,1850
2022-12-17T20:17:10.748Z,1842.9
2022-12-17T20:18:54.439Z,1836.1
2022-12-17T20:20:38.203Z,1821.1
2022-12-17T20:22:21.845Z,1814.7
2022-12-17T20:24:05.561Z,1822.2
2022-12-17T20:25:49.262Z,1824
2022-12-17T20:27:32.954Z,1820.9
2022-12-17T20:29:16.659Z,1822.3
2022-12-17T20:31:00.360Z,1819.2
2022-12-17T20:32:44.124Z,1811.3
2022-12-17T20:34:27.761Z,1810
2022-12-17T20:36:11.476Z,1814.2
2022-12-17T20:37:55.215Z,1809.4
2022-12-17T20:39:38.923Z,1807
2022-12-17T20:41:22.609Z,1804.7
2022-12-17T20:43:06.271Z,1800.3
2022-12-17T20:44:49.979Z,1791
2022-12-17T20:46:33.689Z,1779.6
2022-12-17T20:48:17.383Z,1780
2022-12-17T20:50:01.092Z,1780.5
2022-12-17T20:51:44.834Z,1779.6
2022-12-17T20:53:28.506Z,1780.9
2022-12-17T20:55:12.214Z,1778.2
2022-12-17T20:56:55.985Z,1778.5
2022-12-17T20:58:39.589Z,1780.1
2022-12-17T21:00:23.304Z,1779.3
2022-12-17T21:02:07.081Z,1784.1
2022-12-17T21:03:50.718Z,1789.2
2022-12-17T21:05:34.406Z,1787.9
2022-12-17T21:09:01.857Z,1784.2
2022-12-17T21:10:45.521Z,1782.2
2022-12-17T21:12:29.227Z,1780.8
2022-12-17T21:14:12.964Z,1781.2
2022-12-17T21:15:56.636Z,1780.8
2022-12-17T21:17:40.343Z,1783.7
2022-12-17T21:19:24.111Z,1780.2
2022-12-17T21:21:07.749Z,1770.2
2022-12-17T21:22:51.450Z,1767.6
2022-12-17T21:24:35.139Z,1772.6
2022-12-17T21:26:18.846Z,1767.3
2022-12-17T21:28:02.563Z,1762.5
2022-12-17T21:29:46.257Z,1760.4
2022-12-17T21:31:29.958Z,1761.5
2022-12-17T21:33:13.708Z,1762
2022-12-17T21:34:57.440Z,1766.5
2022-12-17T21:36:41.071Z,1762.2
2022-12-17T21:38:24.786Z,1766.3
2022-12-17T21:40:08.475Z,1766.1
2022-12-17T21:41:52.173Z,1763.5
2022-12-17T21:43:35.873Z,1763.2
2022-12-17T21:45:19.591Z,1763.4
2022-12-17T21:47:03.277Z,1761
2022-12-17T21:48:46.983Z,1752.6
2022-12-17T21:50:30.784Z,1754.1
2022-12-17T21:52:14.388Z,1754.9
2022-12-17T21:53:58.108Z,1755
2022-12-17T21:55:41.801Z,1753.8
2022-12-17T21:57:25.512Z,1755.8
2022-12-17T21:59:09.199Z,1753.9
2022-12-17T22:00:52.920Z,1756.5
2022-12-17T22:02:36.606Z,1753.2
2022-12-17T22:04:20.315Z,1753.9
2022-12-17T22:06:04.005Z,1750.4
2022-12-17T22:07:47.709Z,1753.4
2022-12-17T22:09:31.413Z,1755.6
2022-12-17T22:11:15.152Z,1760.6
2022-12-17T22:12:58.813Z,1770.7
2022-12-17T22:14:42.536Z,1823.7
2022-12-17T22:16:26.276Z,1862.2
2022-12-17T22:18:09.930Z,1851.3
2022-12-17T22:19:53.637Z,1846.3
2022-12-17T22:21:37.332Z,1837.6
2022-12-17T22:23:21.034Z,1830.7
2022-12-17T22:25:04.734Z,1817.7
2022-12-17T22:26:48.442Z,1795.9
2022-12-17T22:28:32.181Z,1784
2022-12-17T22:30:15.840Z,1772.9
2022-12-17T22:31:59.543Z,1768.9
2022-12-17T22:33:43.250Z,1764.4
2022-12-17T22:35:26.949Z,1763
2022-12-17T22:37:10.653Z,1766
2022-12-17T22:38:54.356Z,1775.2